sensor_id;sensor_type;location;lat;lon;timestamp;temperature;humidity
11132;DHT22;5620;53.570;9.718;2023-11-19T00:02:02;7.50;99.90
11132;DHT22;5620;53.570;9.718;2023-11-19T00:04:28;7.50;99.90
11132;DHT22;5620;53.570;9.718;2023-11-19T00:06:54;7.50;99.90
11132;DHT22;5620;53.570;9.718;2023-11-19T00:09:22;7.50;99.90
11132;DHT22;5620;53.570;9.718;2023-11-19T00:11:48;7.50;99.90
11132;DHT22;5620;53.570;9.718;2023-11-19T00:14:13;7.50;99.90
11132;DHT22;5620;53.570;9.718;2023-11-19T00:16:40;7.50;99.90
11132;DHT22;5620;53.570;9.718;2023-11-19T00:19:06;7.50;99.90
11132;DHT22;5620;53.570;9.718;2023-11-19T00:21:31;7.50;99.90
11132;DHT22;5620;53.570;9.718;2023-11-19T00:23:57;7.50;1.00
11132;DHT22;5620;53.570;9.718;2023-11-19T00:26:23;7.50;99.90
11132;DHT22;5620;53.570;9.718;2023-11-19T00:28:49;7.50;99.90
11132;DHT22;5620;53.570;9.718;2023-11-19T00:31:15;7.50;1.00
11132;DHT22;5620;53.570;9.718;2023-11-19T00:33:40;7.50;1.00
11132;DHT22;5620;53.570;9.718;2023-11-19T00:36:06;7.50;1.00
11132;DHT22;5620;53.570;9.718;2023-11-19T00:38:32;7.50;1.00
11132;DHT22;5620;53.570;9.718;2023-11-19T00:40:59;7.50;1.00
11132;DHT22;5620;53.570;9.718;2023-11-19T00:43:26;7.50;1.00
11132;DHT22;5620;53.570;9.718;2023-11-19T00:45:53;7.50;1.00
11132;DHT22;5620;53.570;9.718;2023-11-19T00:48:18;7.50;1.00
11132;DHT22;5620;53.570;9.718;2023-11-19T00:50:44;7.50;1.00
11132;DHT22;5620;53.570;9.718;2023-11-19T00:53:10;7.50;1.00
11132;DHT22;5620;53.570;9.718;2023-11-19T00:55:36;7.50;1.00
11132;DHT22;5620;53.570;9.718;2023-11-19T00:58:03;7.50;1.00
11132;DHT22;5620;53.570;9.718;2023-11-19T01:00:28;7.50;1.00
11132;DHT22;5620;53.570;9.718;2023-11-19T01:02:54;7.60;1.00
11132;DHT22;5620;53.570;9.718;2023-11-19T01:05:20;7.50;1.00
11132;DHT22;5620;53.570;9.718;2023-11-19T01:07:46;7.50;73.30
11132;DHT22;5620;53.570;9.718;2023-11-19T01:10:12;7.50;76.20
11132;DHT22;5620;53.570;9.718;2023-11-19T01:12:38;7.50;95.30
11132;DHT22;5620;53.570;9.718;2023-11-19T01:15:05;7.50;99.90
11132;DHT22;5620;53.570;9.718;2023-11-19T01:17:31;7.50;99.90
11132;DHT22;5620;53.570;9.718;2023-11-19T01:19:58;7.60;99.90
11132;DHT22;5620;53.570;9.718;2023-11-19T01:22:26;7.60;99.90
11132;DHT22;5620;53.570;9.718;2023-11-19T01:24:52;7.60;99.90
11132;DHT22;5620;53.570;9.718;2023-11-19T01:27:18;7.60;99.90
11132;DHT22;5620;53.570;9.718;2023-11-19T01:29:44;7.60;99.90
11132;DHT22;5620;53.570;9.718;2023-11-19T01:32:10;7.60;99.90
11132;DHT22;5620;53.570;9.718;2023-11-19T01:34:36;7.60;99.90
11132;DHT22;5620;53.570;9.718;2023-11-19T01:37:03;7.60;99.90
11132;DHT22;5620;53.570;9.718;2023-11-19T01:39:31;7.60;1.00
11132;DHT22;5620;53.570;9.718;2023-11-19T01:41:56;7.70;99.90
11132;DHT22;5620;53.570;9.718;2023-11-19T01:44:22;7.60;99.90
11132;DHT22;5620;53.570;9.718;2023-11-19T01:46:48;7.70;99.90
11132;DHT22;5620;53.570;9.718;2023-11-19T01:49:16;7.70;1.00
11132;DHT22;5620;53.570;9.718;2023-11-19T01:51:45;7.70;1.00
11132;DHT22;5620;53.570;9.718;2023-11-19T01:54:11;7.70;99.90
11132;DHT22;5620;53.570;9.718;2023-11-19T01:56:38;7.70;1.00
11132;DHT22;5620;53.570;9.718;2023-11-19T01:59:05;7.80;1.00
11132;DHT22;5620;53.570;9.718;2023-11-19T02:01:32;7.80;1.00
11132;DHT22;5620;53.570;9.718;2023-11-19T02:03:58;7.80;1.00
11132;DHT22;5620;53.570;9.718;2023-11-19T02:06:27;7.80;1.00
11132;DHT22;5620;53.570;9.718;2023-11-19T02:08:53;7.90;1.00
11132;DHT22;5620;53.570;9.718;2023-11-19T02:11:21;7.80;1.00
11132;DHT22;5620;53.570;9.718;2023-11-19T02:13:47;7.80;1.00
11132;DHT22;5620;53.570;9.718;2023-11-19T02:16:13;7.80;1.00
11132;DHT22;5620;53.570;9.718;2023-11-19T02:18:39;7.90;1.00
11132;DHT22;5620;53.570;9.718;2023-11-19T02:21:05;7.90;1.00
11132;DHT22;5620;53.570;9.718;2023-11-19T02:23:34;7.90;1.00
11132;DHT22;5620;53.570;9.718;2023-11-19T02:26:25;8.00;1.00
11132;DHT22;5620;53.570;9.718;2023-11-19T02:28:53;8.00;1.00
11132;DHT22;5620;53.570;9.718;2023-11-19T02:31:20;8.00;1.00
11132;DHT22;5620;53.570;9.718;2023-11-19T02:33:46;8.00;1.00
11132;DHT22;5620;53.570;9.718;2023-11-19T02:36:13;8.00;1.00
11132;DHT22;5620;53.570;9.718;2023-11-19T02:38:40;8.00;1.00
11132;DHT22;5620;53.570;9.718;2023-11-19T02:41:07;8.00;1.00
11132;DHT22;5620;53.570;9.718;2023-11-19T02:43:35;8.10;1.00
11132;DHT22;5620;53.570;9.718;2023-11-19T02:46:04;8.10;1.00
11132;DHT22;5620;53.570;9.718;2023-11-19T02:48:30;8.10;1.00
11132;DHT22;5620;53.570;9.718;2023-11-19T02:50:57;8.10;1.00
11132;DHT22;5620;53.570;9.718;2023-11-19T02:53:25;8.20;1.00
11132;DHT22;5620;53.570;9.718;2023-11-19T02:55:52;8.20;3.60
11132;DHT22;5620;53.570;9.718;2023-11-19T02:58:18;8.20;19.40
11132;DHT22;5620;53.570;9.718;2023-11-19T03:00:46;8.30;80.40
11132;DHT22;5620;53.570;9.718;2023-11-19T03:03:12;8.40;55.10
11132;DHT22;5620;53.570;9.718;2023-11-19T03:05:39;8.40;46.10
11132;DHT22;5620;53.570;9.718;2023-11-19T03:08:06;8.40;54.40
11132;DHT22;5620;53.570;9.718;2023-11-19T03:10:33;8.40;86.50
11132;DHT22;5620;53.570;9.718;2023-11-19T03:12:58;8.50;99.90
11132;DHT22;5620;53.570;9.718;2023-11-19T03:15:25;8.60;99.90
11132;DHT22;5620;53.570;9.718;2023-11-19T03:17:50;8.60;99.90
11132;DHT22;5620;53.570;9.718;2023-11-19T03:20:17;8.60;99.90
11132;DHT22;5620;53.570;9.718;2023-11-19T03:22:43;8.70;99.90
11132;DHT22;5620;53.570;9.718;2023-11-19T03:25:09;8.70;99.90
11132;DHT22;5620;53.570;9.718;2023-11-19T03:27:35;8.70;99.90
11132;DHT22;5620;53.570;9.718;2023-11-19T03:30:09;8.80;99.90
11132;DHT22;5620;53.570;9.718;2023-11-19T03:32:35;8.80;99.90
11132;DHT22;5620;53.570;9.718;2023-11-19T03:35:01;8.80;99.90
11132;DHT22;5620;53.570;9.718;2023-11-19T03:37:27;8.80;99.90
11132;DHT22;5620;53.570;9.718;2023-11-19T03:39:59;8.90;99.90
11132;DHT22;5620;53.570;9.718;2023-11-19T03:42:26;8.90;1.00
11132;DHT22;5620;53.570;9.718;2023-11-19T03:44:52;9.00;1.00
11132;DHT22;5620;53.570;9.718;2023-11-19T03:47:18;9.00;99.90
11132;DHT22;5620;53.570;9.718;2023-11-19T03:49:53;9.00;99.90
11132;DHT22;5620;53.570;9.718;2023-11-19T03:52:19;9.10;99.90
11132;DHT22;5620;53.570;9.718;2023-11-19T03:54:45;9.10;99.90
11132;DHT22;5620;53.570;9.718;2023-11-19T03:57:14;9.10;1.00
11132;DHT22;5620;53.570;9.718;2023-11-19T03:59:40;9.10;1.00
11132;DHT22;5620;53.570;9.718;2023-11-19T04:02:06;9.20;1.00
11132;DHT22;5620;53.570;9.718;2023-11-19T04:04:33;9.20;1.00
11132;DHT22;5620;53.570;9.718;2023-11-19T04:06:58;9.30;1.00
11132;DHT22;5620;53.570;9.718;2023-11-19T04:09:25;9.30;1.00
11132;DHT22;5620;53.570;9.718;2023-11-19T04:11:51;9.40;1.00
11132;DHT22;5620;53.570;9.718;2023-11-19T04:14:18;9.50;1.00
11132;DHT22;5620;53.570;9.718;2023-11-19T04:16:44;9.50;1.00
11132;DHT22;5620;53.570;9.718;2023-11-19T04:19:10;9.60;1.00
11132;DHT22;5620;53.570;9.718;2023-11-19T04:21:36;9.70;1.00
11132;DHT22;5620;53.570;9.718;2023-11-19T04:24:04;9.80;1.00
11132;DHT22;5620;53.570;9.718;2023-11-19T04:26:30;9.80;1.00
11132;DHT22;5620;53.570;9.718;2023-11-19T04:28:57;9.90;1.00
11132;DHT22;5620;53.570;9.718;2023-11-19T04:31:28;10.00;17.40
11132;DHT22;5620;53.570;9.718;2023-11-19T04:33:53;10.10;71.60
11132;DHT22;5620;53.570;9.718;2023-11-19T04:36:20;10.20;63.00
11132;DHT22;5620;53.570;9.718;2023-11-19T04:38:46;10.20;6.90
11132;DHT22;5620;53.570;9.718;2023-11-19T04:41:11;10.30;12.20
11132;DHT22;5620;53.570;9.718;2023-11-19T04:43:37;10.40;93.20
11132;DHT22;5620;53.570;9.718;2023-11-19T04:46:04;10.50;10.20
11132;DHT22;5620;53.570;9.718;2023-11-19T04:48:32;10.60;42.90
11132;DHT22;5620;53.570;9.718;2023-11-19T04:51:01;10.70;99.90
11132;DHT22;5620;53.570;9.718;2023-11-19T04:53:31;10.80;99.90
11132;DHT22;5620;53.570;9.718;2023-11-19T04:55:58;10.80;1.00
11132;DHT22;5620;53.570;9.718;2023-11-19T04:58:23;10.90;1.00
11132;DHT22;5620;53.570;9.718;2023-11-19T05:00:49;11.00;1.00
11132;DHT22;5620;53.570;9.718;2023-11-19T05:03:14;11.00;1.00
11132;DHT22;5620;53.570;9.718;2023-11-19T05:05:40;11.10;1.00
11132;DHT22;5620;53.570;9.718;2023-11-19T05:08:05;11.10;5.30
11132;DHT22;5620;53.570;9.718;2023-11-19T05:10:32;11.20;86.30
11132;DHT22;5620;53.570;9.718;2023-11-19T05:12:58;11.20;99.90
11132;DHT22;5620;53.570;9.718;2023-11-19T05:15:24;11.20;99.90
11132;DHT22;5620;53.570;9.718;2023-11-19T05:17:51;11.30;99.90
11132;DHT22;5620;53.570;9.718;2023-11-19T05:20:17;11.30;99.90
11132;DHT22;5620;53.570;9.718;2023-11-19T05:22:43;11.30;99.90
11132;DHT22;5620;53.570;9.718;2023-11-19T05:25:09;11.30;1.00
11132;DHT22;5620;53.570;9.718;2023-11-19T05:27:35;11.30;1.00
11132;DHT22;5620;53.570;9.718;2023-11-19T05:30:02;11.40;64.80
11132;DHT22;5620;53.570;9.718;2023-11-19T05:32:29;11.40;99.90
11132;DHT22;5620;53.570;9.718;2023-11-19T05:34:54;11.40;99.90
11132;DHT22;5620;53.570;9.718;2023-11-19T05:37:21;11.50;99.90
11132;DHT22;5620;53.570;9.718;2023-11-19T05:39:48;11.60;99.90
11132;DHT22;5620;53.570;9.718;2023-11-19T05:42:13;11.60;1.00
11132;DHT22;5620;53.570;9.718;2023-11-19T05:44:40;11.60;1.00
11132;DHT22;5620;53.570;9.718;2023-11-19T05:47:06;11.60;12.10
11132;DHT22;5620;53.570;9.718;2023-11-19T05:49:33;11.70;99.90
11132;DHT22;5620;53.570;9.718;2023-11-19T05:51:59;11.70;99.90
11132;DHT22;5620;53.570;9.718;2023-11-19T05:54:26;11.80;99.90
11132;DHT22;5620;53.570;9.718;2023-11-19T05:56:52;11.80;99.90
11132;DHT22;5620;53.570;9.718;2023-11-19T05:59:20;11.90;99.90
11132;DHT22;5620;53.570;9.718;2023-11-19T06:01:47;11.90;99.90
11132;DHT22;5620;53.570;9.718;2023-11-19T06:04:14;11.90;99.90
11132;DHT22;5620;53.570;9.718;2023-11-19T06:06:40;12.00;99.90
11132;DHT22;5620;53.570;9.718;2023-11-19T06:09:08;12.10;99.90
11132;DHT22;5620;53.570;9.718;2023-11-19T06:11:36;12.10;99.90
11132;DHT22;5620;53.570;9.718;2023-11-19T06:14:02;12.20;99.90
11132;DHT22;5620;53.570;9.718;2023-11-19T06:16:29;12.20;99.90
11132;DHT22;5620;53.570;9.718;2023-11-19T06:18:56;12.20;99.90
11132;DHT22;5620;53.570;9.718;2023-11-19T06:21:23;12.30;99.90
11132;DHT22;5620;53.570;9.718;2023-11-19T06:23:49;12.20;99.90
11132;DHT22;5620;53.570;9.718;2023-11-19T06:26:16;12.30;99.90
11132;DHT22;5620;53.570;9.718;2023-11-19T06:28:43;12.40;1.00
11132;DHT22;5620;53.570;9.718;2023-11-19T06:31:10;12.50;1.00
11132;DHT22;5620;53.570;9.718;2023-11-19T06:33:38;12.50;1.00
11132;DHT22;5620;53.570;9.718;2023-11-19T06:36:05;12.60;99.90
11132;DHT22;5620;53.570;9.718;2023-11-19T06:38:31;12.60;99.90
11132;DHT22;5620;53.570;9.718;2023-11-19T06:40:58;12.70;99.90
11132;DHT22;5620;53.570;9.718;2023-11-19T06:43:25;12.70;99.90
11132;DHT22;5620;53.570;9.718;2023-11-19T06:45:53;12.70;1.00
11132;DHT22;5620;53.570;9.718;2023-11-19T06:48:20;12.60;1.00
11132;DHT22;5620;53.570;9.718;2023-11-19T06:50:46;12.50;1.00
11132;DHT22;5620;53.570;9.718;2023-11-19T06:53:13;12.40;1.00
11132;DHT22;5620;53.570;9.718;2023-11-19T06:55:38;12.20;99.90
11132;DHT22;5620;53.570;9.718;2023-11-19T06:58:05;12.10;99.90
11132;DHT22;5620;53.570;9.718;2023-11-19T07:00:32;12.10;1.00
11132;DHT22;5620;53.570;9.718;2023-11-19T07:02:59;12.00;1.00
11132;DHT22;5620;53.570;9.718;2023-11-19T07:05:26;12.00;14.20
11132;DHT22;5620;53.570;9.718;2023-11-19T07:07:51;12.00;99.90
11132;DHT22;5620;53.570;9.718;2023-11-19T07:10:18;11.90;99.90
11132;DHT22;5620;53.570;9.718;2023-11-19T07:12:45;11.90;99.90
11132;DHT22;5620;53.570;9.718;2023-11-19T07:15:12;11.90;1.00
11132;DHT22;5620;53.570;9.718;2023-11-19T07:17:40;11.90;1.00
11132;DHT22;5620;53.570;9.718;2023-11-19T07:20:07;11.90;1.00
11132;DHT22;5620;53.570;9.718;2023-11-19T07:22:34;11.90;1.00
11132;DHT22;5620;53.570;9.718;2023-11-19T07:25:01;11.90;36.60
11132;DHT22;5620;53.570;9.718;2023-11-19T07:27:27;11.90;99.90
11132;DHT22;5620;53.570;9.718;2023-11-19T07:29:54;12.00;99.90
11132;DHT22;5620;53.570;9.718;2023-11-19T07:32:21;12.10;99.90
11132;DHT22;5620;53.570;9.718;2023-11-19T07:34:48;12.20;59.30
11132;DHT22;5620;53.570;9.718;2023-11-19T07:37:14;12.30;1.00
11132;DHT22;5620;53.570;9.718;2023-11-19T07:39:41;12.50;1.00
11132;DHT22;5620;53.570;9.718;2023-11-19T07:42:08;12.60;1.00
11132;DHT22;5620;53.570;9.718;2023-11-19T07:44:35;12.60;1.00
11132;DHT22;5620;53.570;9.718;2023-11-19T07:47:04;12.70;99.90
11132;DHT22;5620;53.570;9.718;2023-11-19T07:49:31;12.80;99.90
11132;DHT22;5620;53.570;9.718;2023-11-19T07:51:58;12.80;99.90
11132;DHT22;5620;53.570;9.718;2023-11-19T07:54:25;12.80;99.90
11132;DHT22;5620;53.570;9.718;2023-11-19T07:56:52;12.80;42.20
11132;DHT22;5620;53.570;9.718;2023-11-19T07:59:19;12.80;66.90
11132;DHT22;5620;53.570;9.718;2023-11-19T08:01:45;12.80;47.50
11132;DHT22;5620;53.570;9.718;2023-11-19T08:04:12;12.80;1.00
11132;DHT22;5620;53.570;9.718;2023-11-19T08:06:39;12.70;1.00
11132;DHT22;5620;53.570;9.718;2023-11-19T08:09:06;12.80;42.90
11132;DHT22;5620;53.570;9.718;2023-11-19T08:11:33;12.80;9.90
11132;DHT22;5620;53.570;9.718;2023-11-19T08:14:00;12.80;99.90
11132;DHT22;5620;53.570;9.718;2023-11-19T08:16:26;12.90;1.00
11132;DHT22;5620;53.570;9.718;2023-11-19T08:18:52;12.80;99.90
11132;DHT22;5620;53.570;9.718;2023-11-19T08:21:18;12.80;99.90
11132;DHT22;5620;53.570;9.718;2023-11-19T08:23:45;12.80;99.90
11132;DHT22;5620;53.570;9.718;2023-11-19T08:26:10;12.80;99.90
11132;DHT22;5620;53.570;9.718;2023-11-19T08:28:39;12.80;90.50
11132;DHT22;5620;53.570;9.718;2023-11-19T08:31:06;12.80;99.90
11132;DHT22;5620;53.570;9.718;2023-11-19T08:33:32;12.80;99.90
11132;DHT22;5620;53.570;9.718;2023-11-19T08:36:00;12.80;50.20
11132;DHT22;5620;53.570;9.718;2023-11-19T08:38:26;12.80;99.90
11132;DHT22;5620;53.570;9.718;2023-11-19T08:40:52;12.80;44.30
11132;DHT22;5620;53.570;9.718;2023-11-19T08:43:17;12.80;6.50
11132;DHT22;5620;53.570;9.718;2023-11-19T08:45:44;12.80;26.60
11132;DHT22;5620;53.570;9.718;2023-11-19T08:48:10;12.80;90.80
11132;DHT22;5620;53.570;9.718;2023-11-19T08:50:35;12.80;54.00
11132;DHT22;5620;53.570;9.718;2023-11-19T08:53:01;12.80;95.30
11132;DHT22;5620;53.570;9.718;2023-11-19T08:55:26;12.80;1.00
11132;DHT22;5620;53.570;9.718;2023-11-19T08:57:52;12.80;31.10
11132;DHT22;5620;53.570;9.718;2023-11-19T09:00:18;12.90;1.00
11132;DHT22;5620;53.570;9.718;2023-11-19T09:02:44;12.90;1.00
11132;DHT22;5620;53.570;9.718;2023-11-19T09:05:10;13.00;99.90
11132;DHT22;5620;53.570;9.718;2023-11-19T09:07:35;13.00;99.90
11132;DHT22;5620;53.570;9.718;2023-11-19T09:10:01;13.10;99.90
11132;DHT22;5620;53.570;9.718;2023-11-19T09:12:27;13.20;14.20
11132;DHT22;5620;53.570;9.718;2023-11-19T09:14:53;13.20;1.00
11132;DHT22;5620;53.570;9.718;2023-11-19T09:17:20;13.30;1.00
11132;DHT22;5620;53.570;9.718;2023-11-19T09:19:54;13.30;99.90
11132;DHT22;5620;53.570;9.718;2023-11-19T09:22:19;13.30;96.70
11132;DHT22;5620;53.570;9.718;2023-11-19T09:24:46;13.40;99.90
11132;DHT22;5620;53.570;9.718;2023-11-19T09:27:12;13.40;65.60
11132;DHT22;5620;53.570;9.718;2023-11-19T09:29:40;13.50;1.00
11132;DHT22;5620;53.570;9.718;2023-11-19T09:32:07;13.60;1.00
11132;DHT22;5620;53.570;9.718;2023-11-19T09:34:35;13.70;99.90
11132;DHT22;5620;53.570;9.718;2023-11-19T09:37:02;13.70;1.00
11132;DHT22;5620;53.570;9.718;2023-11-19T09:39:28;13.80;1.00
11132;DHT22;5620;53.570;9.718;2023-11-19T09:41:54;13.80;99.90
11132;DHT22;5620;53.570;9.718;2023-11-19T09:44:22;13.70;73.10
11132;DHT22;5620;53.570;9.718;2023-11-19T09:46:47;13.60;1.00
11132;DHT22;5620;53.570;9.718;2023-11-19T09:49:13;13.50;1.00
11132;DHT22;5620;53.570;9.718;2023-11-19T09:51:39;13.50;1.00
11132;DHT22;5620;53.570;9.718;2023-11-19T09:54:05;13.40;1.00
11132;DHT22;5620;53.570;9.718;2023-11-19T09:56:33;13.30;99.90
11132;DHT22;5620;53.570;9.718;2023-11-19T09:59:01;13.20;19.10
11132;DHT22;5620;53.570;9.718;2023-11-19T10:01:27;13.10;60.50
11132;DHT22;5620;53.570;9.718;2023-11-19T10:03:56;13.10;99.90
11132;DHT22;5620;53.570;9.718;2023-11-19T10:06:22;13.00;99.90
11132;DHT22;5620;53.570;9.718;2023-11-19T10:08:48;12.90;99.90
11132;DHT22;5620;53.570;9.718;2023-11-19T10:11:15;12.80;99.90
11132;DHT22;5620;53.570;9.718;2023-11-19T10:13:41;12.60;99.90
11132;DHT22;5620;53.570;9.718;2023-11-19T10:16:12;12.50;1.00
11132;DHT22;5620;53.570;9.718;2023-11-19T10:18:46;12.50;99.90
11132;DHT22;5620;53.570;9.718;2023-11-19T10:21:19;12.50;99.90
11132;DHT22;5620;53.570;9.718;2023-11-19T10:23:51;12.50;99.90
11132;DHT22;5620;53.570;9.718;2023-11-19T10:26:18;12.30;1.00
11132;DHT22;5620;53.570;9.718;2023-11-19T10:28:46;12.20;99.90
11132;DHT22;5620;53.570;9.718;2023-11-19T10:31:14;12.20;1.00
11132;DHT22;5620;53.570;9.718;2023-11-19T10:33:39;12.20;80.60
11132;DHT22;5620;53.570;9.718;2023-11-19T10:36:05;12.20;99.90
11132;DHT22;5620;53.570;9.718;2023-11-19T10:38:33;12.30;1.00
11132;DHT22;5620;53.570;9.718;2023-11-19T10:41:01;12.30;1.00
11132;DHT22;5620;53.570;9.718;2023-11-19T10:43:28;12.30;1.00
11132;DHT22;5620;53.570;9.718;2023-11-19T10:46:13;12.40;99.90
11132;DHT22;5620;53.570;9.718;2023-11-19T10:48:40;12.50;1.00
11132;DHT22;5620;53.570;9.718;2023-11-19T10:51:07;12.60;99.90
11132;DHT22;5620;53.570;9.718;2023-11-19T10:53:35;12.60;1.00
11132;DHT22;5620;53.570;9.718;2023-11-19T10:56:05;12.70;1.00
11132;DHT22;5620;53.570;9.718;2023-11-19T10:58:35;12.80;1.00
11132;DHT22;5620;53.570;9.718;2023-11-19T11:01:02;12.70;1.00
11132;DHT22;5620;53.570;9.718;2023-11-19T11:03:39;12.60;1.00
11132;DHT22;5620;53.570;9.718;2023-11-19T11:06:10;12.70;99.90
11132;DHT22;5620;53.570;9.718;2023-11-19T11:08:38;12.80;99.90
11132;DHT22;5620;53.570;9.718;2023-11-19T11:11:07;13.00;99.90
11132;DHT22;5620;53.570;9.718;2023-11-19T11:13:35;13.40;99.90
11132;DHT22;5620;53.570;9.718;2023-11-19T11:16:04;13.70;99.90
11132;DHT22;5620;53.570;9.718;2023-11-19T11:18:32;13.80;1.00
11132;DHT22;5620;53.570;9.718;2023-11-19T11:21:15;13.90;99.90
11132;DHT22;5620;53.570;9.718;2023-11-19T11:23:53;13.90;3.50
11132;DHT22;5620;53.570;9.718;2023-11-19T11:29:34;13.50;1.00
11132;DHT22;5620;53.570;9.718;2023-11-19T11:35:30;13.70;1.50
11132;DHT22;5620;53.570;9.718;2023-11-19T11:38:09;13.80;99.90
11132;DHT22;5620;53.570;9.718;2023-11-19T11:40:35;14.00;60.60
11132;DHT22;5620;53.570;9.718;2023-11-19T11:43:04;14.10;1.00
11132;DHT22;5620;53.570;9.718;2023-11-19T11:45:38;14.20;99.90
11132;DHT22;5620;53.570;9.718;2023-11-19T11:48:19;14.50;1.00
11132;DHT22;5620;53.570;9.718;2023-11-19T11:50:55;15.20;1.00
11132;DHT22;5620;53.570;9.718;2023-11-19T11:53:24;15.30;99.90
11132;DHT22;5620;53.570;9.718;2023-11-19T11:58:21;15.50;92.90
11132;DHT22;5620;53.570;9.718;2023-11-19T12:00:48;15.60;1.00
11132;DHT22;5620;53.570;9.718;2023-11-19T12:03:16;15.50;99.90
11132;DHT22;5620;53.570;9.718;2023-11-19T12:05:47;15.50;1.00
11132;DHT22;5620;53.570;9.718;2023-11-19T12:08:17;15.60;1.00
11132;DHT22;5620;53.570;9.718;2023-11-19T12:10:53;15.40;98.50
11132;DHT22;5620;53.570;9.718;2023-11-19T12:13:21;15.30;32.80
11132;DHT22;5620;53.570;9.718;2023-11-19T12:18:29;14.90;99.90
11132;DHT22;5620;53.570;9.718;2023-11-19T12:20:56;14.50;99.90
11132;DHT22;5620;53.570;9.718;2023-11-19T12:23:26;14.20;99.90
11132;DHT22;5620;53.570;9.718;2023-11-19T12:25:52;14.00;99.90
11132;DHT22;5620;53.570;9.718;2023-11-19T12:28:18;14.00;99.90
11132;DHT22;5620;53.570;9.718;2023-11-19T12:30:44;14.00;1.00
11132;DHT22;5620;53.570;9.718;2023-11-19T12:33:11;14.00;1.00
11132;DHT22;5620;53.570;9.718;2023-11-19T12:35:45;14.20;1.00
11132;DHT22;5620;53.570;9.718;2023-11-19T12:38:29;14.60;1.00
11132;DHT22;5620;53.570;9.718;2023-11-19T12:43:31;15.00;99.90
11132;DHT22;5620;53.570;9.718;2023-11-19T12:45:57;14.90;99.90
11132;DHT22;5620;53.570;9.718;2023-11-19T12:48:23;15.00;99.90
11132;DHT22;5620;53.570;9.718;2023-11-19T12:51:08;15.00;99.90
11132;DHT22;5620;53.570;9.718;2023-11-19T12:53:49;14.90;99.90
11132;DHT22;5620;53.570;9.718;2023-11-19T12:56:16;15.20;99.90
11132;DHT22;5620;53.570;9.718;2023-11-19T12:58:43;15.30;99.90
11132;DHT22;5620;53.570;9.718;2023-11-19T13:01:16;15.40;99.90
11132;DHT22;5620;53.570;9.718;2023-11-19T13:03:42;15.40;34.00
11132;DHT22;5620;53.570;9.718;2023-11-19T13:06:11;15.40;25.80
11132;DHT22;5620;53.570;9.718;2023-11-19T13:08:43;15.70;46.90
11132;DHT22;5620;53.570;9.718;2023-11-19T13:11:12;16.10;1.00
11132;DHT22;5620;53.570;9.718;2023-11-19T13:13:58;16.10;1.00
11132;DHT22;5620;53.570;9.718;2023-11-19T13:16:27;15.80;99.90
11132;DHT22;5620;53.570;9.718;2023-11-19T13:18:54;15.40;99.90
11132;DHT22;5620;53.570;9.718;2023-11-19T13:21:21;15.10;99.90
11132;DHT22;5620;53.570;9.718;2023-11-19T13:23:48;15.00;99.90
11132;DHT22;5620;53.570;9.718;2023-11-19T13:26:15;14.90;99.90
11132;DHT22;5620;53.570;9.718;2023-11-19T13:28:42;14.70;99.90
11132;DHT22;5620;53.570;9.718;2023-11-19T13:31:09;14.60;99.90
11132;DHT22;5620;53.570;9.718;2023-11-19T13:33:35;14.50;99.90
11132;DHT22;5620;53.570;9.718;2023-11-19T13:36:03;14.40;99.90
11132;DHT22;5620;53.570;9.718;2023-11-19T13:38:30;14.30;1.00
11132;DHT22;5620;53.570;9.718;2023-11-19T13:40:57;14.30;1.00
11132;DHT22;5620;53.570;9.718;2023-11-19T13:43:24;14.30;1.00
11132;DHT22;5620;53.570;9.718;2023-11-19T13:45:50;14.40;1.00
11132;DHT22;5620;53.570;9.718;2023-11-19T13:48:17;14.60;1.00
11132;DHT22;5620;53.570;9.718;2023-11-19T13:50:45;15.10;1.00
11132;DHT22;5620;53.570;9.718;2023-11-19T13:53:12;15.30;1.00
11132;DHT22;5620;53.570;9.718;2023-11-19T13:55:37;15.30;99.90
11132;DHT22;5620;53.570;9.718;2023-11-19T13:58:04;15.20;99.90
11132;DHT22;5620;53.570;9.718;2023-11-19T14:00:31;15.00;99.90
11132;DHT22;5620;53.570;9.718;2023-11-19T14:02:57;14.80;99.90
11132;DHT22;5620;53.570;9.718;2023-11-19T14:05:24;14.70;99.90
11132;DHT22;5620;53.570;9.718;2023-11-19T14:07:50;14.40;99.90
11132;DHT22;5620;53.570;9.718;2023-11-19T14:10:17;14.20;99.90
11132;DHT22;5620;53.570;9.718;2023-11-19T14:12:45;13.70;99.90
11132;DHT22;5620;53.570;9.718;2023-11-19T14:15:12;13.30;99.90
11132;DHT22;5620;53.570;9.718;2023-11-19T14:17:37;13.20;99.90
11132;DHT22;5620;53.570;9.718;2023-11-19T14:20:05;13.00;1.00
11132;DHT22;5620;53.570;9.718;2023-11-19T14:22:31;12.90;1.00
11132;DHT22;5620;53.570;9.718;2023-11-19T14:24:57;12.80;1.00
11132;DHT22;5620;53.570;9.718;2023-11-19T14:27:24;12.80;62.30
11132;DHT22;5620;53.570;9.718;2023-11-19T14:29:53;12.80;99.90
11132;DHT22;5620;53.570;9.718;2023-11-19T14:32:19;12.80;99.90
11132;DHT22;5620;53.570;9.718;2023-11-19T14:34:46;12.80;99.90
11132;DHT22;5620;53.570;9.718;2023-11-19T14:37:12;12.70;99.90
11132;DHT22;5620;53.570;9.718;2023-11-19T14:39:38;12.60;1.00
11132;DHT22;5620;53.570;9.718;2023-11-19T14:42:05;12.60;1.00
11132;DHT22;5620;53.570;9.718;2023-11-19T14:44:32;12.60;1.00
11132;DHT22;5620;53.570;9.718;2023-11-19T14:46:57;12.60;1.00
11132;DHT22;5620;53.570;9.718;2023-11-19T14:49:24;12.60;1.00
11132;DHT22;5620;53.570;9.718;2023-11-19T14:51:51;12.60;87.00
11132;DHT22;5620;53.570;9.718;2023-11-19T14:54:17;12.60;99.90
11132;DHT22;5620;53.570;9.718;2023-11-19T14:56:43;12.70;99.90
11132;DHT22;5620;53.570;9.718;2023-11-19T14:59:11;12.70;99.90
11132;DHT22;5620;53.570;9.718;2023-11-19T15:01:38;12.70;99.90
11132;DHT22;5620;53.570;9.718;2023-11-19T15:04:05;12.60;99.90
11132;DHT22;5620;53.570;9.718;2023-11-19T15:06:32;12.60;99.90
11132;DHT22;5620;53.570;9.718;2023-11-19T15:08:59;12.50;99.90
11132;DHT22;5620;53.570;9.718;2023-11-19T15:11:26;12.50;99.90
11132;DHT22;5620;53.570;9.718;2023-11-19T15:13:53;12.30;99.90
11132;DHT22;5620;53.570;9.718;2023-11-19T15:16:19;12.20;1.00
11132;DHT22;5620;53.570;9.718;2023-11-19T15:18:47;12.10;1.00
11132;DHT22;5620;53.570;9.718;2023-11-19T15:21:13;12.00;1.00
11132;DHT22;5620;53.570;9.718;2023-11-19T15:23:40;12.00;30.00
11132;DHT22;5620;53.570;9.718;2023-11-19T15:26:06;12.10;57.90
11132;DHT22;5620;53.570;9.718;2023-11-19T15:28:33;12.00;16.10
11132;DHT22;5620;53.570;9.718;2023-11-19T15:31:00;12.00;82.80
11132;DHT22;5620;53.570;9.718;2023-11-19T15:33:27;11.90;99.90
11132;DHT22;5620;53.570;9.718;2023-11-19T15:35:54;11.90;99.90
11132;DHT22;5620;53.570;9.718;2023-11-19T15:38:21;11.90;99.90
11132;DHT22;5620;53.570;9.718;2023-11-19T15:40:48;12.00;99.90
11132;DHT22;5620;53.570;9.718;2023-11-19T15:43:14;12.10;99.90
11132;DHT22;5620;53.570;9.718;2023-11-19T15:45:41;12.10;99.90
11132;DHT22;5620;53.570;9.718;2023-11-19T15:48:08;12.10;99.90
11132;DHT22;5620;53.570;9.718;2023-11-19T15:50:35;12.10;99.90
11132;DHT22;5620;53.570;9.718;2023-11-19T15:53:02;12.10;99.90
11132;DHT22;5620;53.570;9.718;2023-11-19T15:55:28;12.10;99.90
11132;DHT22;5620;53.570;9.718;2023-11-19T15:57:55;12.00;99.90
11132;DHT22;5620;53.570;9.718;2023-11-19T16:00:22;11.90;1.00
11132;DHT22;5620;53.570;9.718;2023-11-19T16:02:49;11.80;1.00
11132;DHT22;5620;53.570;9.718;2023-11-19T16:05:16;11.70;86.60
11132;DHT22;5620;53.570;9.718;2023-11-19T16:07:43;11.60;99.90
11132;DHT22;5620;53.570;9.718;2023-11-19T16:10:10;11.60;1.00
11132;DHT22;5620;53.570;9.718;2023-11-19T16:12:36;11.50;1.00